Time;durP1;ratioP1;P1;durP2;ratioP2;P2;SDS_P1;SDS_P2;PMS_P1;PMS_P2;Temp;Humidity;BMP_temperature;BMP_pressure;BME280_temperature;BME280_humidity;BME280_pressure;Samples;Min_cycle;Max_cycle;Signal;HPM_P1;HPM_P2
2023/10/03 00:14:31;;;;;;;7.25;4.97;;;;;;;26.20;37.91;97248.41;6125251;23;20088;-28
2023/10/03 00:30:24;;;;;;;7.85;4.72;;;;;;;26.05;37.63;97245.16;6126142;23;20021;-28
2023/10/03 00:59:44;;;;;;;11.20;6.22;;;;;;;26.03;40.18;97225.44;6126254;23;20017;-28
2023/10/03 01:15:36;;;;;;;11.57;7.85;;;;;;;25.91;43.27;97219.16;6124804;23;20032;-28
2023/10/03 01:31:28;;;;;;;12.35;8.57;;;;;;;26.03;43.19;97212.31;6125391;23;20020;-28
2023/10/03 01:44:51;;;;;;;12.43;8.77;;;;;;;25.71;45.99;97200.81;6125963;23;20060;-28
2023/10/03 02:00:45;;;;;;;17.73;11.18;;;;;;;25.87;47.56;97192.91;6125617;23;20347;-28
2023/10/03 02:31:08;;;;;;;18.92;10.05;;;;;;;25.92;47.59;97162.34;6127711;23;20020;-27
2023/10/03 02:47:00;;;;;;;19.13;11.18;;;;;;;25.84;47.34;97169.66;6127374;23;20388;-28
2023/10/03 03:16:20;;;;;;;17.13;10.45;;;;;;;25.72;47.38;97160.63;6125790;23;20087;-28
2023/10/03 03:32:13;;;;;;;17.42;11.60;;;;;;;25.69;47.79;97160.91;6127114;23;20029;-28
2023/10/03 03:48:06;;;;;;;14.18;10.98;;;;;;;25.73;46.94;97144.69;6127051;23;20031;-28
2023/10/03 04:01:24;;;;;;;17.40;11.40;;;;;;;25.64;48.53;97142.22;6126978;23;20068;-27
2023/10/03 04:17:42;;;;;;;19.60;12.30;;;;;;;25.54;48.60;97141.72;6125260;23;20089;-28
2023/10/03 04:20:30;;;;;;;13.68;10.70;;;;;;;25.51;49.11;97139.97;6126580;23;20010;-28
2023/10/03 04:33:00;;;;;;;16.92;10.52;;;;;;;25.60;48.87;97142.44;6126533;23;20013;-28
2023/10/03 04:48:52;;;;;;;16.58;10.35;;;;;;;25.65;48.08;97140.94;6126034;23;20491;-27
2023/10/03 05:02:06;;;;;;;;;;;;;;;25.53;47.51;97151.31;6126706;23;20047;-28
2023/10/03 05:04:32;;;;;;;14.38;9.90;;;;;;;25.55;47.23;97159.13;6126026;23;19909;-28
2023/10/03 05:17:17;;;;;;;16.42;10.25;;;;;;;25.37;47.26;97147.31;6124938;23;20482;-28
2023/10/03 05:33:08;;;;;;;15.38;8.75;;;;;;;25.49;46.06;97161.91;6125929;23;20105;-28
2023/10/03 05:49:00;;;;;;;13.20;8.02;;;;;;;25.40;45.12;97167.75;6125872;23;20024;-28
2023/10/03 06:04:54;;;;;;;9.10;6.43;;;;;;;25.62;43.07;97180.84;6125341;23;20032;-28
2023/10/03 06:17:53;;;;;;;8.93;5.70;;;;;;;25.63;42.98;97196.25;6124906;23;20016;-28
2023/10/03 06:33:45;;;;;;;14.32;6.72;;;;;;;25.86;43.19;97206.03;6125720;23;19968;-28
2023/10/03 06:49:38;;;;;;;12.63;6.68;;;;;;;25.72;43.51;97215.41;6125589;23;20020;-28
2023/10/03 07:18:57;;;;;;;12.77;7.03;;;;;;;25.84;43.16;97228.03;6125740;23;20455;-28
2023/10/03 07:34:49;;;;;;;19.63;6.05;;;;;;;25.96;42.33;97234.31;6126820;23;20020;-28
2023/10/03 07:50:45;;;;;;;13.25;5.75;;;;;;;25.90;42.32;97247.47;6126742;23;20387;-28
2023/10/03 08:04:12;;;;;;;16.13;8.00;;;;;;;25.92;42.10;97239.38;6126590;23;20048;-28
2023/10/03 08:20:06;;;;;;;18.38;8.88;;;;;;;26.11;41.45;97251.44;6125383;23;20033;-28
2023/10/03 08:35:58;;;;;;;13.65;8.18;;;;;;;26.28;40.95;97243.84;6126644;23;20013;-28
2023/10/03 09:05:24;;;;;;;9.52;5.50;;;;;;;26.63;39.88;97250.75;6126473;23;20021;-28
2023/10/03 09:21:23;;;;;;;9.68;5.40;;;;;;;26.69;39.51;97255.00;6124516;23;20041;-28
2023/10/03 09:50:51;;;;;;;12.30;6.25;;;;;;;26.82;39.51;97249.63;6125702;23;20092;-28
2023/10/03 10:06:50;;;;;;;12.02;6.78;;;;;;;26.97;38.51;97242.94;6125632;23;20466;-28
2023/10/03 10:37:10;;;;;;;10.23;6.10;;;;;;;27.07;37.91;97241.38;6127590;23;20455;-27
2023/10/03 11:06:29;;;;;;;9.88;5.43;;;;;;;27.24;36.52;97225.28;6127329;23;20462;-27
2023/10/03 11:22:23;;;;;;;11.00;5.50;;;;;;;27.28;35.42;97211.09;6125698;23;20087;-27
2023/10/03 11:38:16;;;;;;;8.45;4.88;;;;;;;27.32;35.11;97194.84;6126777;23;20451;-27
2023/10/03 11:51:42;;;;;;;9.70;5.00;;;;;;;27.26;34.40;97183.75;6126788;23;20013;-28
2023/10/03 12:07:34;;;;;;;7.55;4.95;;;;;;;27.25;34.77;97165.53;6126703;23;20013;-27
2023/10/03 12:23:26;;;;;;;9.68;5.88;;;;;;;27.30;36.35;97159.16;6124943;23;20056;-27
2023/10/03 12:52:50;;;;;;;7.00;5.13;;;;;;;27.34;37.04;97142.16;6126120;23;20017;-28
2023/10/03 13:08:43;;;;;;;7.85;5.10;;;;;;;27.33;36.04;97135.81;6126254;23;20407;-28
2023/10/03 13:24:36;;;;;;;7.55;5.20;;;;;;;27.38;34.50;97132.22;6124743;23;20152;-27
2023/10/03 13:37:54;;;;;;;9.88;4.90;;;;;;;27.48;34.46;97127.06;6126249;23;20013;-27
2023/10/03 13:53:46;;;;;;;7.03;4.72;;;;;;;27.45;33.49;97128.84;6125579;23;20020;-27
2023/10/03 14:09:39;;;;;;;12.82;4.63;;;;;;;27.50;33.97;97118.94;6129164;23;20021;-28
2023/10/03 14:12:05;;;;;;;8.52;4.50;;;;;;;27.45;33.89;97116.94;6129046;23;20006;-27
2023/10/03 14:24:36;;;;;;;6.38;4.22;;;;;;;27.51;34.49;97115.63;6127357;23;20652;-27
2023/10/03 14:40:28;;;;;;;8.07;4.15;;;;;;;27.57;35.00;97118.38;6128951;23;20459;-28
2023/10/03 14:53:50;;;;;;;14.18;4.03;;;;;;;27.59;35.80;97126.19;6128533;23;20013;-28
2023/10/03 15:10:01;;;;;;;7.07;4.32;;;;;;;27.55;36.49;97107.00;6128393;23;20462;-28
2023/10/03 15:12:27;;;;;;;7.95;4.00;;;;;;;27.58;36.89;97110.75;6128946;23;20084;-28
2023/10/03 15:24:56;;;;;;;4.88;3.63;;;;;;;27.63;37.52;97121.09;6125796;23;20028;-28
2023/10/03 15:27:22;;;;;;;7.40;3.75;;;;;;;27.63;37.50;97121.09;6126980;23;20017;-28
2023/10/03 15:29:48;;;;;;;6.53;3.95;;;;;;;27.68;37.55;97106.34;6127145;23;20073;-27
2023/10/03 15:32:14;;;;;;;5.95;3.70;;;;;;;27.66;37.74;97106.88;6127144;23;20006;-28
2023/10/03 15:41:23;;;;;;;5.97;3.65;;;;;;;27.67;37.69;97113.22;6127229;23;20089;-28
2023/10/03 15:54:32;;;;;;;7.05;3.58;;;;;;;27.73;38.02;97123.00;6126831;23;20013;-28
2023/10/03 16:11:07;;;;;;;7.20;3.72;;;;;;;27.73;38.57;97116.66;6126951;23;20020;-27
2023/10/03 16:26:59;;;;;;;10.65;4.20;;;;;;;27.47;39.23;97114.41;6123740;23;20032;-28
2023/10/03 16:42:51;;;;;;;10.30;4.70;;;;;;;27.49;41.63;97112.59;6125963;23;20076;-28
2023/10/03 17:12:48;;;;;;;7.30;4.10;;;;;;;27.14;43.47;97116.28;6126166;23;20052;-28
2023/10/03 17:28:40;;;;;;;7.68;4.63;;;;;;;27.11;44.30;97125.66;6124711;23;20029;-28
2023/10/03 17:42:05;;;;;;;9.25;5.18;;;;;;;26.99;45.13;97124.25;6126199;23;20068;-28
2023/10/03 17:57:58;;;;;;;8.00;5.22;;;;;;;26.89;46.11;97134.19;6125364;23;20081;-28
2023/10/03 18:13:50;;;;;;;13.68;5.93;;;;;;;26.81;47.43;97127.69;6125690;23;20089;-28
2023/10/03 18:27:32;;;;;;;10.40;5.25;;;;;;;26.74;48.16;97139.38;6125824;23;20036;-28
2023/10/03 18:43:50;;;;;;;;;;;;;;;26.72;48.77;97141.91;6096788;23;20480;-28
2023/10/03 18:46:15;;;;;;;11.15;5.97;;;;;;;26.73;48.75;97149.75;6096655;23;19912;-28
2023/10/03 18:58:46;;;;;;;7.47;5.53;;;;;;;26.70;49.41;97153.56;6098083;23;20021;-28
2023/10/03 19:14:37;;;;;;;12.35;6.25;;;;;;;26.57;50.27;97161.75;6098039;23;20337;-28
2023/10/03 19:45:17;;;;;;;9.65;7.30;;;;;;;26.50;50.38;97164.31;6126914;23;20343;-28
2023/10/03 19:58:35;;;;;;;9.65;5.85;;;;;;;26.50;50.38;97159.50;6127284;23;20435;-28
2023/10/03 20:14:28;;;;;;;10.27;7.07;;;;;;;26.33;51.67;97176.31;6126592;23;20021;-28
2023/10/03 20:30:21;;;;;;;11.27;7.05;;;;;;;26.43;52.28;97187.88;6125099;23;20344;-28
2023/10/03 20:46:15;;;;;;;7.93;6.50;;;;;;;26.29;52.44;97189.72;6126144;23;20017;-27
2023/10/03 20:59:20;;;;;;;8.77;6.45;;;;;;;26.12;51.75;97187.00;6126520;23;20069;-28
2023/10/03 21:15:12;;;;;;;9.95;6.38;;;;;;;26.31;51.13;97183.66;6125518;23;20523;-28
2023/10/03 21:31:04;;;;;;;8.82;5.78;;;;;;;26.08;51.22;97183.00;6124885;23;20097;-28
2023/10/03 21:46:56;;;;;;;7.47;5.35;;;;;;;25.97;50.15;97174.66;6125550;23;20113;-28
2023/10/03 22:00:19;;;;;;;7.78;5.88;;;;;;;25.97;50.16;97181.00;6125995;23;20080;-28
2023/10/03 22:16:11;;;;;;;8.20;6.38;;;;;;;25.97;50.26;97174.66;6125562;23;20064;-28
2023/10/03 22:32:03;;;;;;;6.72;5.50;;;;;;;26.04;50.12;97163.03;6126595;23;20483;-28
2023/10/03 22:47:56;;;;;;;6.95;5.68;;;;;;;25.93;49.65;97149.94;6127231;23;20044;-28
2023/10/03 23:00:39;;;;;;;7.47;5.95;;;;;;;26.02;48.93;97154.44;6127369;23;20021;-28
2023/10/03 23:03:04;;;;;;;6.65;4.80;;;;;;;26.02;49.07;97152.44;6127143;23;20412;-28
2023/10/03 23:15:50;;;;;;;5.35;4.63;;;;;;;26.02;47.84;97151.66;6127353;23;20013;-28
2023/10/03 23:31:42;;;;;;;5.72;4.78;;;;;;;25.80;47.28;97140.66;6125926;23;20096;-28
2023/10/03 23:48:24;;;;;;;6.43;4.90;;;;;;;25.81;46.02;97137.38;6127073;23;20069;-28
